createdAt,value
2023-03-20T00:01:16.382Z,100640.88
2023-03-20T00:03:43.132Z,100647.06
2023-03-20T00:06:18.374Z,100642.66
2023-03-20T00:08:47.174Z,100641.78
2023-03-20T00:11:31.136Z,100638.28
2023-03-20T00:14:07.099Z,100647.13
2023-03-20T00:16:36.973Z,100649.78
2023-03-20T00:19:05.106Z,100647.16
2023-03-20T00:21:32.620Z,100648.00
2023-03-20T00:24:00.532Z,100638.28
2023-03-20T00:26:34.764Z,100643.59
2023-03-20T00:29:03.943Z,100640.94
2023-03-20T00:31:33.382Z,100634.75
2023-03-20T00:34:02.404Z,100632.97
2023-03-20T00:36:29.497Z,100636.47
2023-03-20T00:38:59.351Z,100633.75
2023-03-20T00:41:32.690Z,100634.53
2023-03-20T00:44:22.398Z,100629.19
2023-03-20T00:47:01.549Z,100631.75
2023-03-20T00:49:30.790Z,100632.56
2023-03-20T00:51:58.042Z,100628.94
2023-03-20T00:54:24.885Z,100639.50
2023-03-20T00:57:19.950Z,100644.72
2023-03-20T00:59:56.340Z,100649.06
2023-03-20T01:02:28.947Z,100644.66
2023-03-20T01:04:55.982Z,100644.63
2023-03-20T01:07:22.518Z,100649.91
2023-03-20T01:09:48.964Z,100650.72
2023-03-20T01:12:16.364Z,100655.16
2023-03-20T01:14:43.759Z,100652.50
2023-03-20T01:17:23.066Z,100653.44
2023-03-20T01:19:49.874Z,100649.88
2023-03-20T01:22:18.096Z,100655.19
2023-03-20T01:24:44.807Z,100649.88
2023-03-20T01:27:16.965Z,100652.53
2023-03-20T01:29:44.298Z,100648.06
2023-03-20T01:32:13.912Z,100650.69
2023-03-20T01:34:40.774Z,100647.09
2023-03-20T01:37:14.088Z,100652.41
2023-03-20T01:39:41.029Z,100651.50
2023-03-20T01:42:08.075Z,100654.97
2023-03-20T01:44:36.441Z,100655.84
2023-03-20T01:47:14.886Z,100652.28
2023-03-20T01:50:00.406Z,100653.13
2023-03-20T01:52:27.269Z,100653.16
2023-03-20T01:54:53.747Z,100667.28
2023-03-20T01:57:25.666Z,100671.66
2023-03-20T02:00:03.804Z,100675.97
2023-03-20T02:02:44.037Z,100697.72
2023-03-20T02:05:17.670Z,100698.34
2023-03-20T02:07:49.978Z,100699.06
2023-03-20T02:10:18.979Z,100702.38
2023-03-20T02:12:52.885Z,100707.50
2023-03-20T02:15:29.788Z,100707.34
2023-03-20T02:18:14.025Z,100713.50
2023-03-20T02:21:03.535Z,100716.03
2023-03-20T02:23:53.045Z,100707.19
2023-03-20T02:26:40.676Z,100703.59
2023-03-20T02:29:36.645Z,100713.25
2023-03-20T02:32:18.757Z,100719.41
2023-03-20T02:35:01.254Z,100724.69
2023-03-20T02:37:27.715Z,100721.16
2023-03-20T02:40:16.071Z,100722.88
2023-03-20T02:43:10.926Z,100729.03
2023-03-20T02:46:14.196Z,100727.22
2023-03-20T02:48:58.028Z,100730.72
2023-03-20T02:51:36.380Z,100736.84
2023-03-20T02:54:21.735Z,100733.31
2023-03-20T02:57:16.445Z,100734.19
2023-03-20T02:59:55.612Z,100734.22
2023-03-20T03:02:34.639Z,100728.06
2023-03-20T03:05:05.474Z,100728.13
2023-03-20T03:07:34.738Z,100727.25
2023-03-20T03:10:11.583Z,100732.53
2023-03-20T03:12:43.278Z,100734.31
2023-03-20T03:15:22.893Z,100740.44
2023-03-20T03:17:49.792Z,100736.88
2023-03-20T03:20:24.510Z,100734.19
2023-03-20T03:22:51.398Z,100739.47
2023-03-20T03:25:18.164Z,100736.78
2023-03-20T03:27:53.198Z,100742.13
2023-03-20T03:30:29.842Z,100739.47
2023-03-20T03:33:23.067Z,100737.72
2023-03-20T03:35:51.423Z,100736.84
2023-03-20T03:38:37.985Z,100737.75
2023-03-20T03:41:28.464Z,100737.72
2023-03-20T03:44:18.236Z,100733.28
2023-03-20T03:46:53.766Z,100738.56
2023-03-20T03:49:29.060Z,100739.47
2023-03-20T03:52:00.629Z,100738.59
2023-03-20T03:54:34.558Z,100742.13
2023-03-20T03:57:27.862Z,100734.22
2023-03-20T03:59:57.229Z,100736.84
2023-03-20T04:02:24.164Z,100730.63
2023-03-20T04:04:53.098Z,100727.03
2023-03-20T04:07:20.458Z,100725.97
2023-03-20T04:09:47.212Z,100719.66
2023-03-20T04:12:38.210Z,100713.28
2023-03-20T04:15:09.586Z,100720.25
2023-03-20T04:17:36.493Z,100723.66
2023-03-20T04:20:05.009Z,100724.63
2023-03-20T04:22:34.695Z,100722.94
2023-03-20T04:25:17.445Z,100723.97
2023-03-20T04:27:43.945Z,100736.34
2023-03-20T04:30:18.734Z,100726.81
2023-03-20T04:33:04.149Z,100734.78
2023-03-20T04:35:42.754Z,100740.94
2023-03-20T04:38:12.928Z,100722.31
2023-03-20T04:40:39.945Z,100732.75
2023-03-20T04:43:06.581Z,100732.66
2023-03-20T04:45:33.830Z,100736.00
2023-03-20T04:48:01.901Z,100732.34
2023-03-20T04:50:29.306Z,100726.03
2023-03-20T04:52:56.083Z,100730.28
2023-03-20T04:55:22.891Z,100726.66
2023-03-20T04:57:50.662Z,100734.53
2023-03-20T05:00:18.433Z,100724.84
2023-03-20T05:02:45.531Z,100724.91
2023-03-20T05:05:12.040Z,100718.78
2023-03-20T05:07:38.563Z,100717.09
2023-03-20T05:10:09.132Z,100711.97
2023-03-20T05:12:44.745Z,100714.78
2023-03-20T05:15:29.825Z,100700.84
2023-03-20T05:18:14.774Z,100710.69
2023-03-20T05:20:52.991Z,100708.19
2023-03-20T05:23:27.214Z,100713.59
2023-03-20T05:26:12.481Z,100711.06
2023-03-20T05:29:05.756Z,100719.09
2023-03-20T05:31:43.142Z,100714.75
2023-03-20T05:34:18.109Z,100721.88
2023-03-20T05:36:54.446Z,100720.22
2023-03-20T05:39:46.684Z,100717.63
2023-03-20T05:42:26.642Z,100723.81
2023-03-20T05:45:10.252Z,100721.19
2023-03-20T05:48:02.689Z,100719.44
2023-03-20T05:50:40.933Z,100709.78
2023-03-20T05:53:27.776Z,100719.56
2023-03-20T05:55:54.286Z,100721.34
2023-03-20T05:58:50.074Z,100719.75
2023-03-20T06:01:31.222Z,100716.38
2023-03-20T06:04:08.447Z,100724.44
2023-03-20T06:06:59.397Z,100721.88
2023-03-20T06:09:26.637Z,100721.13
2023-03-20T06:11:53.655Z,100719.44
2023-03-20T06:14:21.011Z,100733.63
2023-03-20T06:16:55.256Z,100726.69
2023-03-20T06:19:22.130Z,100731.22
2023-03-20T06:21:49.934Z,100732.13
2023-03-20T06:24:19.219Z,100732.22
2023-03-20T06:26:45.990Z,100734.84
2023-03-20T06:29:13.560Z,100733.94
2023-03-20T06:31:40.348Z,100740.16
2023-03-20T06:34:11.364Z,100740.19
2023-03-20T06:36:45.241Z,100742.91
2023-03-20T06:39:17.792Z,100746.47
2023-03-20T06:41:44.267Z,100750.84
2023-03-20T06:44:11.140Z,100750.88
2023-03-20T06:46:56.554Z,100752.69
2023-03-20T06:49:23.211Z,100757.91
2023-03-20T06:51:50.661Z,100755.22
2023-03-20T06:54:23.652Z,100757.81
2023-03-20T06:56:51.500Z,100764.84
2023-03-20T06:59:18.378Z,100754.19
2023-03-20T07:01:45.542Z,100758.63
2023-03-20T07:04:12.748Z,100758.66
2023-03-20T07:06:46.282Z,100760.41
2023-03-20T07:09:12.854Z,100762.19
2023-03-20T07:11:39.549Z,100764.78
2023-03-20T07:14:06.232Z,100767.47
2023-03-20T07:16:59.392Z,100768.34
2023-03-20T07:19:26.187Z,100764.88
2023-03-20T07:22:01.808Z,100773.72
2023-03-20T07:24:32.703Z,100766.66
2023-03-20T07:26:59.797Z,100783.41
2023-03-20T07:29:26.966Z,100778.09
2023-03-20T07:31:54.778Z,100780.69
2023-03-20T07:34:29.029Z,100780.75
2023-03-20T07:36:56.436Z,100783.44
2023-03-20T07:39:23.175Z,100784.34
2023-03-20T07:42:08.743Z,100786.19
2023-03-20T07:44:44.912Z,100789.75
2023-03-20T07:47:12.023Z,100785.31
2023-03-20T07:49:38.447Z,100781.78
2023-03-20T07:52:07.249Z,100784.44
2023-03-20T07:54:33.758Z,100788.03
2023-03-20T07:57:00.282Z,100786.38
2023-03-20T07:59:27.076Z,100782.91
2023-03-20T08:01:53.556Z,100790.94
2023-03-20T08:04:22.626Z,100791.00
2023-03-20T08:06:49.765Z,100781.31
2023-03-20T08:09:16.935Z,100770.81
2023-03-20T08:11:43.693Z,100766.56
2023-03-20T08:14:10.574Z,100765.72
2023-03-20T08:16:37.164Z,100768.41
2023-03-20T08:19:05.308Z,100774.56
2023-03-20T08:21:32.790Z,100771.00
2023-03-20T08:23:59.223Z,100780.75
2023-03-20T08:26:26.020Z,100781.56
2023-03-20T08:28:53.237Z,100784.19
2023-03-20T08:31:20.214Z,100784.22
2023-03-20T08:33:47.170Z,100790.44
2023-03-20T08:36:15.860Z,100794.81
2023-03-20T08:38:42.870Z,100794.81
2023-03-20T08:41:11.137Z,100793.22
2023-03-20T08:43:37.913Z,100796.00
2023-03-20T08:46:04.750Z,100793.31
2023-03-20T08:48:33.152Z,100788.03
2023-03-20T08:50:59.817Z,100794.28
2023-03-20T08:53:27.218Z,100799.69
2023-03-20T08:55:54.352Z,100802.22
2023-03-20T08:58:21.536Z,100808.41
2023-03-20T09:00:48.012Z,100806.50
2023-03-20T09:03:17.606Z,100807.47
2023-03-20T09:05:45.494Z,100801.13
2023-03-20T09:08:12.853Z,100799.25
2023-03-20T09:10:40.711Z,100810.59
2023-03-20T09:13:25.640Z,100806.94
2023-03-20T09:15:53.476Z,100805.94
2023-03-20T09:18:21.356Z,100811.03
2023-03-20T09:20:48.619Z,100809.19
2023-03-20T09:23:15.768Z,100813.53
2023-03-20T09:25:42.255Z,100819.66
2023-03-20T09:28:09.102Z,100810.88
2023-03-20T09:30:36.345Z,100815.25
2023-03-20T09:33:03.009Z,100821.50
2023-03-20T09:35:29.498Z,100816.31
2023-03-20T09:37:56.579Z,100809.34
2023-03-20T09:40:28.868Z,100818.13
2023-03-20T09:42:58.832Z,100823.47
2023-03-20T09:45:41.448Z,100818.25
2023-03-20T09:48:20.204Z,100831.50
2023-03-20T09:50:53.805Z,100828.06
2023-03-20T09:53:35.542Z,100817.56
2023-03-20T09:56:02.583Z,100827.31
2023-03-20T09:58:33.642Z,100833.50
2023-03-20T10:01:02.558Z,100827.38
2023-03-20T10:03:50.605Z,100825.56
2023-03-20T10:06:18.053Z,100829.97
2023-03-20T10:08:45.933Z,100834.38
2023-03-20T10:11:34.227Z,100834.41
2023-03-20T10:14:21.304Z,100833.47
2023-03-20T10:17:13.706Z,100832.56
2023-03-20T10:19:53.361Z,100839.56
2023-03-20T10:22:32.779Z,100835.44
2023-03-20T10:25:07.325Z,100829.38
2023-03-20T10:27:41.951Z,100838.13
2023-03-20T10:30:20.368Z,100835.41
2023-03-20T10:33:18.914Z,100832.75
2023-03-20T10:36:01.835Z,100836.34
2023-03-20T10:38:49.319Z,100839.00
2023-03-20T10:41:23.214Z,100834.66
2023-03-20T10:43:52.745Z,100834.66
2023-03-20T10:46:44.684Z,100837.28
2023-03-20T10:49:35.961Z,100833.69
2023-03-20T10:52:06.590Z,100830.16
2023-03-20T10:54:41.994Z,100822.28
2023-03-20T10:57:17.948Z,100829.44
2023-03-20T10:59:49.632Z,100819.88
2023-03-20T11:02:18.253Z,100811.47
2023-03-20T11:04:45.039Z,100816.19
2023-03-20T11:07:26.880Z,100820.66
2023-03-20T11:10:05.579Z,100824.31
2023-03-20T11:12:34.206Z,100813.78
2023-03-20T11:15:04.907Z,100819.97
2023-03-20T11:17:31.378Z,100809.41
2023-03-20T11:20:05.129Z,100809.41
2023-03-20T11:22:32.086Z,100793.47
2023-03-20T11:25:04.227Z,100798.59
2023-03-20T11:27:35.974Z,100802.91
2023-03-20T11:30:06.012Z,100793.09
2023-03-20T11:32:42.060Z,100797.38
2023-03-20T11:35:24.000Z,100794.75
2023-03-20T11:37:52.837Z,100784.97
2023-03-20T11:40:34.243Z,100783.19
2023-03-20T11:43:00.696Z,100789.19
2023-03-20T11:45:34.396Z,100781.25
2023-03-20T11:48:03.504Z,100783.06
2023-03-20T11:50:42.035Z,100786.56
2023-03-20T11:53:23.315Z,100778.72
2023-03-20T11:56:14.718Z,100773.72
2023-03-20T11:59:10.397Z,100767.78
2023-03-20T12:01:44.548Z,100775.91
2023-03-20T12:04:17.973Z,100772.34
2023-03-20T12:07:19.470Z,100772.19
2023-03-20T12:09:54.968Z,100757.84
2023-03-20T12:12:43.644Z,100755.09
2023-03-20T12:15:12.925Z,100755.09
2023-03-20T12:17:58.261Z,100750.03
2023-03-20T12:20:34.187Z,100758.38
2023-03-20T12:23:14.068Z,100754.06
2023-03-20T12:26:03.048Z,100747.06
2023-03-20T12:28:38.524Z,100744.47
2023-03-20T12:31:05.064Z,100754.19
2023-03-20T12:33:42.887Z,100746.16
2023-03-20T12:36:16.543Z,100737.22
2023-03-20T12:38:44.098Z,100742.41
2023-03-20T12:41:44.557Z,100742.47
2023-03-20T12:44:20.908Z,100731.91
2023-03-20T12:46:59.773Z,100732.72
2023-03-20T12:49:42.976Z,100737.94
2023-03-20T12:52:37.476Z,100736.94
2023-03-20T12:55:29.885Z,100731.56
2023-03-20T12:58:18.372Z,100740.34
2023-03-20T13:01:03.757Z,100735.13
2023-03-20T13:03:36.719Z,100738.84
2023-03-20T13:06:30.749Z,100728.44
2023-03-20T13:09:06.135Z,100725.13
2023-03-20T13:11:45.872Z,100721.59
2023-03-20T13:14:18.528Z,100730.31
2023-03-20T13:17:03.652Z,100724.88
2023-03-20T13:19:42.104Z,100722.22
2023-03-20T13:22:25.506Z,100709.84
2023-03-20T13:25:25.282Z,100722.28
2023-03-20T13:28:01.842Z,100709.91
2023-03-20T13:30:44.221Z,100711.72
2023-03-20T13:33:28.547Z,100709.84
2023-03-20T13:36:07.221Z,100716.13
2023-03-20T13:38:38.597Z,100712.59
2023-03-20T13:41:09.729Z,100718.81
2023-03-20T13:43:48.409Z,100717.88
2023-03-20T13:46:19.198Z,100716.06
2023-03-20T13:48:46.722Z,100707.38
2023-03-20T13:51:31.683Z,100703.00
2023-03-20T13:54:32.335Z,100702.16
2023-03-20T13:57:22.551Z,100701.28
2023-03-20T14:00:05.100Z,100691.66
2023-03-20T14:02:53.602Z,100693.41
2023-03-20T14:05:23.393Z,100690.69
2023-03-20T14:07:56.481Z,100685.34
2023-03-20T14:10:23.285Z,100685.31
2023-03-20T14:13:00.689Z,100687.06
2023-03-20T14:15:31.621Z,100681.75
2023-03-20T14:18:02.967Z,100685.31
2023-03-20T14:20:41.885Z,100686.22
2023-03-20T14:23:18.396Z,100693.25
2023-03-20T14:25:47.716Z,100690.47
2023-03-20T14:28:14.234Z,100690.38
2023-03-20T14:30:53.431Z,100690.38
2023-03-20T14:33:22.950Z,100688.66
2023-03-20T14:36:12.348Z,100695.78
2023-03-20T14:39:03.763Z,100682.59
2023-03-20T14:41:47.187Z,100685.31
2023-03-20T14:44:29.972Z,100687.91
2023-03-20T14:47:18.998Z,100676.34
2023-03-20T14:49:52.769Z,100683.41
2023-03-20T14:52:34.759Z,100685.22
2023-03-20T14:55:47.812Z,100678.09
2023-03-20T14:58:35.770Z,100688.63
2023-03-20T15:01:07.693Z,100689.56
2023-03-20T15:03:36.166Z,100690.47
2023-03-20T15:06:06.960Z,100687.72
2023-03-20T15:08:50.826Z,100693.81
2023-03-20T15:11:18.052Z,100688.44
2023-03-20T15:13:46.114Z,100684.94
2023-03-20T15:16:15.031Z,100676.97
2023-03-20T15:18:52.589Z,100678.69
2023-03-20T15:21:23.403Z,100688.38
2023-03-20T15:23:49.879Z,100688.34
2023-03-20T15:26:19.662Z,100694.50
2023-03-20T15:28:47.433Z,100683.84
2023-03-20T15:31:27.453Z,100689.13
2023-03-20T15:33:55.634Z,100685.66
2023-03-20T15:36:30.164Z,100680.28
2023-03-20T15:39:16.761Z,100684.59
2023-03-20T15:41:51.383Z,100680.97
2023-03-20T15:44:25.588Z,100690.63
2023-03-20T15:47:00.425Z,100685.34
2023-03-20T15:49:28.068Z,100680.03
2023-03-20T15:51:59.472Z,100680.06
2023-03-20T15:54:26.300Z,100673.00
2023-03-20T15:56:56.025Z,100666.72
2023-03-20T15:59:27.578Z,100679.94
2023-03-20T16:01:57.887Z,100664.88
2023-03-20T16:04:26.078Z,100679.84
2023-03-20T16:06:55.776Z,100670.94
2023-03-20T16:09:22.692Z,100672.63
2023-03-20T16:12:02.650Z,100678.72
2023-03-20T16:14:32.548Z,100678.72
2023-03-20T16:17:01.576Z,100676.00
2023-03-20T16:19:29.163Z,100675.97
2023-03-20T16:21:59.366Z,100685.66
2023-03-20T16:24:35.415Z,100688.28
2023-03-20T16:27:07.792Z,100686.47
2023-03-20T16:29:35.812Z,100687.28
2023-03-20T16:32:12.024Z,100679.34
2023-03-20T16:34:39.626Z,100691.66
2023-03-20T16:37:27.620Z,100689.91
2023-03-20T16:40:16.136Z,100683.72
2023-03-20T16:42:43.778Z,100682.78
2023-03-20T16:45:30.251Z,100681.84
2023-03-20T16:48:23.992Z,100676.50
2023-03-20T16:50:57.163Z,100680.88
2023-03-20T16:53:24.893Z,100677.31
2023-03-20T16:55:55.578Z,100675.47
2023-03-20T16:58:25.610Z,100680.72
2023-03-20T17:01:04.863Z,100680.69
2023-03-20T17:03:43.659Z,100676.22
2023-03-20T17:06:19.630Z,100680.63
2023-03-20T17:08:50.179Z,100677.03
2023-03-20T17:11:32.924Z,100676.09
2023-03-20T17:13:59.992Z,100678.69
2023-03-20T17:16:26.938Z,100690.13
2023-03-20T17:19:07.305Z,100684.75
2023-03-20T17:21:34.338Z,100675.91
2023-03-20T17:24:00.824Z,100682.91
2023-03-20T17:26:27.340Z,100683.78
2023-03-20T17:28:54.700Z,100681.13
2023-03-20T17:31:21.278Z,100683.69
2023-03-20T17:33:47.860Z,100685.41
2023-03-20T17:36:26.352Z,100682.72
2023-03-20T17:38:53.771Z,100688.91
2023-03-20T17:41:21.350Z,100684.44
2023-03-20T17:43:48.023Z,100688.84
2023-03-20T17:46:27.213Z,100695.84
2023-03-20T17:49:01.661Z,100703.75
2023-03-20T17:51:28.554Z,100706.41
2023-03-20T17:53:57.719Z,100703.75
2023-03-20T17:56:32.480Z,100703.72
2023-03-20T17:59:00.354Z,100697.53
2023-03-20T18:01:28.423Z,100698.34
2023-03-20T18:03:56.514Z,100700.97
2023-03-20T18:06:31.429Z,100692.06
2023-03-20T18:08:59.983Z,100683.13
2023-03-20T18:11:27.166Z,100683.94
2023-03-20T18:13:53.870Z,100686.50
2023-03-20T18:16:23.407Z,100677.66
2023-03-20T18:18:50.904Z,100677.63
2023-03-20T18:21:17.709Z,100677.53
2023-03-20T18:23:48.212Z,100677.50
2023-03-20T18:26:23.804Z,100675.72
2023-03-20T18:28:52.209Z,100676.53
2023-03-20T18:31:19.629Z,100684.44
2023-03-20T18:33:48.009Z,100685.25
2023-03-20T18:36:20.585Z,100690.53
2023-03-20T18:38:47.823Z,100696.66
2023-03-20T18:41:14.867Z,100699.25
2023-03-20T18:43:42.271Z,100697.50
2023-03-20T18:46:17.526Z,100695.69
2023-03-20T18:48:44.578Z,100698.31
2023-03-20T18:51:11.695Z,100693.03
2023-03-20T18:53:40.713Z,100688.56
2023-03-20T18:56:14.041Z,100700.84
2023-03-20T18:58:40.854Z,100699.97
2023-03-20T19:01:07.459Z,100694.69
2023-03-20T19:03:39.196Z,100692.91
2023-03-20T19:06:10.555Z,100705.25
2023-03-20T19:08:38.739Z,100707.00
2023-03-20T19:11:05.918Z,100701.69
2023-03-20T19:13:32.379Z,100699.97
2023-03-20T19:15:58.984Z,100699.91
2023-03-20T19:18:26.905Z,100707.00
2023-03-20T19:20:56.093Z,100705.25
2023-03-20T19:23:24.435Z,100713.22
2023-03-20T19:25:53.099Z,100706.19
2023-03-20T19:28:34.540Z,100703.53
2023-03-20T19:31:05.032Z,100707.94
2023-03-20T19:33:33.201Z,100703.53
2023-03-20T19:36:03.312Z,100696.47
2023-03-20T19:38:31.284Z,100702.59
2023-03-20T19:40:59.249Z,100699.91
2023-03-20T19:43:25.995Z,100703.41
2023-03-20T19:45:58.014Z,100707.78
2023-03-20T19:48:27.919Z,100698.94
2023-03-20T19:50:56.411Z,100697.16
2023-03-20T19:53:27.677Z,100698.88
2023-03-20T19:55:55.430Z,100691.78
2023-03-20T19:58:22.595Z,100696.22
2023-03-20T20:00:59.176Z,100699.69
2023-03-20T20:03:27.260Z,100697.94
2023-03-20T20:05:54.454Z,100700.56
2023-03-20T20:08:41.363Z,100696.13
2023-03-20T20:11:09.764Z,100699.63
2023-03-20T20:13:47.146Z,100700.44
2023-03-20T20:16:22.802Z,100703.06
2023-03-20T20:18:49.345Z,100700.38
2023-03-20T20:24:03.203Z,100702.03
2023-03-20T20:26:31.247Z,100709.94
2023-03-20T20:29:01.908Z,100709.94
2023-03-20T20:31:31.862Z,100711.72
2023-03-20T20:34:34.890Z,100709.91
2023-03-20T20:39:31.923Z,100704.63
2023-03-20T20:41:58.407Z,100697.59
2023-03-20T20:44:24.871Z,100698.44
2023-03-20T20:46:51.601Z,100696.66
2023-03-20T20:49:19.774Z,100692.22
2023-03-20T20:51:47.428Z,100697.50
2023-03-20T20:54:14.262Z,100697.50
2023-03-20T20:56:41.587Z,100691.28
2023-03-20T20:59:08.213Z,100694.81
2023-03-20T21:01:34.986Z,100702.72
2023-03-20T21:04:02.349Z,100698.25
2023-03-20T21:06:57.987Z,100702.69
2023-03-20T21:09:15.350Z,100702.66
2023-03-20T21:11:41.853Z,100698.22
2023-03-20T21:14:08.389Z,100700.84
2023-03-20T21:16:35.416Z,100699.94
2023-03-20T21:19:01.937Z,100707.81
2023-03-20T21:21:28.437Z,100702.50
2023-03-20T21:23:55.472Z,100705.13
2023-03-20T21:26:22.319Z,100705.13
2023-03-20T21:28:48.887Z,100708.59
2023-03-20T21:31:26.764Z,100688.31
2023-03-20T21:33:55.465Z,100697.09
2023-03-20T21:36:23.417Z,100700.59
2023-03-20T21:39:08.679Z,100694.41
2023-03-20T21:41:37.840Z,100697.97
2023-03-20T21:44:06.451Z,100698.81
2023-03-20T22:03:30.854Z,100705.00
2023-03-20T22:07:18.735Z,100702.41
2023-03-20T22:12:43.638Z,100709.44
2023-03-20T22:15:33.924Z,100713.72
2023-03-20T22:17:59.859Z,100716.31
2023-03-20T22:23:45.550Z,100718.78
2023-03-20T22:27:01.556Z,100723.16
2023-03-20T22:29:35.890Z,100719.63
2023-03-20T22:37:48.227Z,100721.31
2023-03-20T22:40:42.060Z,100716.88
2023-03-20T22:45:28.872Z,100714.00
2023-03-20T22:48:01.460Z,100720.00
2023-03-20T22:50:28.275Z,100718.19
2023-03-20T22:52:55.615Z,100718.19
2023-03-20T22:55:24.927Z,100712.91
2023-03-20T22:58:05.938Z,100711.19
2023-03-20T23:00:35.007Z,100712.13
2023-03-20T23:03:15.393Z,100710.38
2023-03-20T23:05:47.202Z,100707.75
2023-03-20T23:08:14.079Z,100706.88
2023-03-20T23:10:45.802Z,100716.59
2023-03-20T23:13:12.624Z,100713.03
2023-03-20T23:15:39.464Z,100710.38
2023-03-20T23:18:06.287Z,100707.75
2023-03-20T23:20:32.872Z,100707.78
2023-03-20T23:22:59.364Z,100702.50
2023-03-20T23:25:38.278Z,100698.06
2023-03-20T23:28:06.756Z,100698.97
2023-03-20T23:30:41.921Z,100699.00
2023-03-20T23:33:10.606Z,100701.66
2023-03-20T23:35:37.126Z,100699.00
2023-03-20T23:38:04.132Z,100695.47
2023-03-20T23:40:30.996Z,100691.03
2023-03-20T23:42:57.547Z,100692.84
2023-03-20T23:45:24.082Z,100697.13
2023-03-20T23:47:50.977Z,100690.84
2023-03-20T23:50:28.848Z,100685.44
2023-03-20T23:53:09.416Z,100688.03
2023-03-20T23:55:40.772Z,100687.16
2023-03-20T23:58:07.565Z,100681.91
